Hauptseite
METAR-TAF:

METAR-TAF

Flughäfen :

Nikolaus-Kopernikus-Flughafen Breslau

Breslau, Polen

Breite: 51-06N, Länge: 016-53E, Höhe: 120 m

Beobachtung

Neuester Wetterbericht von vor 39 Minuten, um 00:00 UTC
Wind 3 kt aus Ost/Südost
Temperatur 15°C
Luftfeuchtigkeit 88%
Luftdruck 1013 hPa
Sichtweite 10 km oder mehr
keine Wolken unter 1500 m und keine Kumulonimbus oder Gewitterwolken

METAR: EPWR 170000Z 12003KT CAVOK 15/13 Q1013

Zeit: 02:39 (00:39 UTC)

Prognose

Neuester Wetterbericht von vor 1 Stunde und 9 Minuten, um 23:30 UTC
Gültige Prognose vom 17 um 00 UTC bis 17 um 24 UTC
Wind 7 kt aus Südost
Sichtweite 10 km oder mehr
keine Wolken unter 1500 m und keine Kumulonimbus oder Gewitterwolken
Wahrscheinlichkeit 40% :
Zeitweise
vom 17 um 12 UTC bis 17 um 21 UTC
Durchbrochene Bewölkung in der Höhe von 5000 ft, Kumulonimbus.
Regenschauer,

TAF: EPWR 162330Z 1700/1724 13007KT CAVOK PROB40 TEMPO 1712/1721 SHRA BKN050CB

Wetterbeobachtungen und Prognosen von mehr als 4000 Flughäfen (METAR und TAF Bericht).

Die verfügbaren Stationen werden durch gelbe und rote Markierungen auf der Karte dargestellt.

Führen Sie die Maus auf sie, um den Namen der Station zu sehen.

Darauf klicken, um die Beobachtung von Wetterbeobachtungen und Prognosen zu sehen.

Um die Karte zu ändern : klicken Sie auf den grünen Tasten mit einem schwarzen Kreuz Zum Vergrößern, auf den grünen Button mit einem Gedankenstrich zu verkleinern, oder auf die grünen Pfeile für benachbarte Karten.


METAR-TAF: